sensor_id;sensor_type;location;lat;lon;timestamp;P1;durP1;ratioP1;P2;durP2;ratioP2
35681;SDS011;21805;51.022;4.782;2023-08-06T08:32:49;17.35;;;3.25;;
35681;SDS011;21805;51.022;4.782;2023-08-06T08:35:35;23.02;;;2.83;;
35681;SDS011;21805;51.022;4.782;2023-08-06T08:38:15;12.23;;;2.58;;
35681;SDS011;21805;51.022;4.782;2023-08-06T08:43:25;17.90;;;2.60;;
35681;SDS011;21805;51.022;4.782;2023-08-06T08:51:42;15.25;;;2.78;;
35681;SDS011;21805;51.022;4.782;2023-08-06T08:54:11;16.33;;;3.25;;
35681;SDS011;21805;51.022;4.782;2023-08-06T08:56:46;21.90;;;2.60;;
35681;SDS011;21805;51.022;4.782;2023-08-06T08:59:26;12.00;;;2.63;;
35681;SDS011;21805;51.022;4.782;2023-08-06T09:07:32;11.25;;;2.75;;
35681;SDS011;21805;51.022;4.782;2023-08-06T09:10:17;15.03;;;2.50;;
35681;SDS011;21805;51.022;4.782;2023-08-06T09:15:20;9.30;;;2.40;;
35681;SDS011;21805;51.022;4.782;2023-08-06T09:22:54;12.75;;;2.55;;
35681;SDS011;21805;51.022;4.782;2023-08-06T09:25:26;12.25;;;2.30;;
35681;SDS011;21805;51.022;4.782;2023-08-06T09:27:59;11.20;;;2.30;;
35681;SDS011;21805;51.022;4.782;2023-08-06T09:30:30;9.45;;;2.22;;
35681;SDS011;21805;51.022;4.782;2023-08-06T09:32:58;12.32;;;2.30;;
35681;SDS011;21805;51.022;4.782;2023-08-06T09:35:29;8.55;;;2.10;;
35681;SDS011;21805;51.022;4.782;2023-08-06T09:38:12;12.18;;;2.45;;
35681;SDS011;21805;51.022;4.782;2023-08-06T09:40:39;9.48;;;2.67;;
35681;SDS011;21805;51.022;4.782;2023-08-06T09:48:08;11.13;;;1.90;;
35681;SDS011;21805;51.022;4.782;2023-08-06T09:50:36;13.77;;;1.95;;
35681;SDS011;21805;51.022;4.782;2023-08-06T09:53:07;9.05;;;2.22;;
35681;SDS011;21805;51.022;4.782;2023-08-06T09:55:40;12.10;;;2.35;;
35681;SDS011;21805;51.022;4.782;2023-08-06T09:58:10;9.80;;;2.28;;
35681;SDS011;21805;51.022;4.782;2023-08-06T10:00:37;10.93;;;2.05;;
35681;SDS011;21805;51.022;4.782;2023-08-06T10:03:16;8.30;;;1.90;;
35681;SDS011;21805;51.022;4.782;2023-08-06T10:05:45;8.02;;;1.85;;
35681;SDS011;21805;51.022;4.782;2023-08-06T10:08:25;18.15;;;2.00;;
35681;SDS011;21805;51.022;4.782;2023-08-06T10:10:55;9.55;;;1.90;;
35681;SDS011;21805;51.022;4.782;2023-08-06T10:13:30;6.85;;;1.42;;
35681;SDS011;21805;51.022;4.782;2023-08-06T10:36:47;11.10;;;1.98;;
35681;SDS011;21805;51.022;4.782;2023-08-06T10:39:24;16.38;;;2.20;;
35681;SDS011;21805;51.022;4.782;2023-08-06T10:41:53;14.02;;;2.03;;
35681;SDS011;21805;51.022;4.782;2023-08-06T10:51:19;10.70;;;2.28;;
35681;SDS011;21805;51.022;4.782;2023-08-06T10:53:51;14.95;;;2.13;;
35681;SDS011;21805;51.022;4.782;2023-08-06T10:57:14;13.75;;;2.30;;
35681;SDS011;21805;51.022;4.782;2023-08-06T11:04:52;13.43;;;1.80;;
35681;SDS011;21805;51.022;4.782;2023-08-06T11:07:19;8.73;;;1.77;;
35681;SDS011;21805;51.022;4.782;2023-08-06T11:12:53;10.07;;;1.70;;
35681;SDS011;21805;51.022;4.782;2023-08-06T11:15:26;9.82;;;1.65;;
35681;SDS011;21805;51.022;4.782;2023-08-06T11:17:53;8.68;;;1.80;;
35681;SDS011;21805;51.022;4.782;2023-08-06T11:20:21;5.53;;;1.40;;
35681;SDS011;21805;51.022;4.782;2023-08-06T11:22:53;7.20;;;1.80;;
35681;SDS011;21805;51.022;4.782;2023-08-06T11:26:05;10.82;;;1.83;;
35681;SDS011;21805;51.022;4.782;2023-08-06T11:29:00;4.93;;;1.70;;
35681;SDS011;21805;51.022;4.782;2023-08-06T11:58:55;5.85;;;1.55;;
35681;SDS011;21805;51.022;4.782;2023-08-06T12:01:40;11.50;;;2.30;;
35681;SDS011;21805;51.022;4.782;2023-08-06T12:04:22;16.48;;;2.30;;
35681;SDS011;21805;51.022;4.782;2023-08-06T12:13:19;13.50;;;2.17;;
35681;SDS011;21805;51.022;4.782;2023-08-06T12:21:23;14.93;;;2.17;;
35681;SDS011;21805;51.022;4.782;2023-08-06T12:23:52;14.85;;;2.33;;
35681;SDS011;21805;51.022;4.782;2023-08-06T12:29:01;10.27;;;2.28;;
35681;SDS011;21805;51.022;4.782;2023-08-06T12:41:19;16.08;;;2.63;;
35681;SDS011;21805;51.022;4.782;2023-08-06T12:43:54;10.32;;;2.50;;
35681;SDS011;21805;51.022;4.782;2023-08-06T12:46:25;11.23;;;2.30;;
35681;SDS011;21805;51.022;4.782;2023-08-06T12:48:50;11.15;;;2.38;;
35681;SDS011;21805;51.022;4.782;2023-08-06T12:51:19;8.63;;;2.05;;
35681;SDS011;21805;51.022;4.782;2023-08-06T12:56:35;10.90;;;2.92;;
35681;SDS011;21805;51.022;4.782;2023-08-06T13:01:33;9.02;;;2.22;;
35681;SDS011;21805;51.022;4.782;2023-08-06T13:06:28;15.48;;;2.92;;
35681;SDS011;21805;51.022;4.782;2023-08-06T13:08:57;13.13;;;2.90;;
35681;SDS011;21805;51.022;4.782;2023-08-06T13:11:23;18.38;;;2.80;;
35681;SDS011;21805;51.022;4.782;2023-08-06T13:13:51;15.05;;;2.67;;
35681;SDS011;21805;51.022;4.782;2023-08-06T13:16:20;10.75;;;2.60;;
35681;SDS011;21805;51.022;4.782;2023-08-06T13:18:46;13.60;;;2.75;;
35681;SDS011;21805;51.022;4.782;2023-08-06T13:21:22;12.60;;;3.00;;
35681;SDS011;21805;51.022;4.782;2023-08-06T13:23:50;11.68;;;2.85;;
35681;SDS011;21805;51.022;4.782;2023-08-06T13:26:16;13.10;;;2.60;;
35681;SDS011;21805;51.022;4.782;2023-08-06T13:31:27;18.40;;;2.88;;
35681;SDS011;21805;51.022;4.782;2023-08-06T13:34:02;14.43;;;2.70;;
35681;SDS011;21805;51.022;4.782;2023-08-06T13:36:43;11.75;;;2.50;;
35681;SDS011;21805;51.022;4.782;2023-08-06T13:39:10;8.82;;;2.30;;
35681;SDS011;21805;51.022;4.782;2023-08-06T13:41:39;7.57;;;2.10;;
35681;SDS011;21805;51.022;4.782;2023-08-06T13:46:35;9.25;;;1.88;;
35681;SDS011;21805;51.022;4.782;2023-08-06T13:51:30;13.45;;;2.28;;
35681;SDS011;21805;51.022;4.782;2023-08-06T13:54:02;10.45;;;2.33;;
35681;SDS011;21805;51.022;4.782;2023-08-06T14:02:31;8.98;;;1.98;;
35681;SDS011;21805;51.022;4.782;2023-08-06T14:05:24;7.03;;;1.50;;
35681;SDS011;21805;51.022;4.782;2023-08-06T14:10:31;11.35;;;2.00;;
35681;SDS011;21805;51.022;4.782;2023-08-06T14:15:26;8.77;;;2.05;;
35681;SDS011;21805;51.022;4.782;2023-08-06T14:17:53;9.50;;;2.10;;
35681;SDS011;21805;51.022;4.782;2023-08-06T14:20:19;10.55;;;1.92;;
35681;SDS011;21805;51.022;4.782;2023-08-06T14:22:46;14.55;;;2.22;;
35681;SDS011;21805;51.022;4.782;2023-08-06T14:25:14;6.30;;;2.13;;
35681;SDS011;21805;51.022;4.782;2023-08-06T14:27:40;12.40;;;2.00;;
35681;SDS011;21805;51.022;4.782;2023-08-06T14:32:35;13.95;;;1.90;;
35681;SDS011;21805;51.022;4.782;2023-08-06T14:35:04;5.20;;;1.80;;
35681;SDS011;21805;51.022;4.782;2023-08-06T14:37:37;12.15;;;2.40;;
35681;SDS011;21805;51.022;4.782;2023-08-06T14:40:06;8.75;;;2.40;;
35681;SDS011;21805;51.022;4.782;2023-08-06T14:42:34;6.45;;;1.80;;
35681;SDS011;21805;51.022;4.782;2023-08-06T14:45:09;7.97;;;2.10;;
35681;SDS011;21805;51.022;4.782;2023-08-06T14:48:07;15.00;;;1.88;;
35681;SDS011;21805;51.022;4.782;2023-08-06T14:50:54;13.05;;;2.15;;
35681;SDS011;21805;51.022;4.782;2023-08-06T14:53:21;11.73;;;2.50;;
35681;SDS011;21805;51.022;4.782;2023-08-06T14:55:49;20.05;;;2.17;;
35681;SDS011;21805;51.022;4.782;2023-08-06T14:58:29;9.13;;;2.00;;
35681;SDS011;21805;51.022;4.782;2023-08-06T15:00:56;13.07;;;2.60;;
35681;SDS011;21805;51.022;4.782;2023-08-06T15:03:23;15.70;;;2.30;;
35681;SDS011;21805;51.022;4.782;2023-08-06T15:08:22;11.23;;;2.03;;
35681;SDS011;21805;51.022;4.782;2023-08-06T15:10:51;8.07;;;2.30;;
35681;SDS011;21805;51.022;4.782;2023-08-06T15:13:22;10.90;;;1.88;;
35681;SDS011;21805;51.022;4.782;2023-08-06T15:15:49;14.32;;;2.35;;
35681;SDS011;21805;51.022;4.782;2023-08-06T15:18:16;12.25;;;2.30;;
35681;SDS011;21805;51.022;4.782;2023-08-06T15:20:42;13.25;;;2.45;;
35681;SDS011;21805;51.022;4.782;2023-08-06T15:23:18;13.57;;;2.40;;
35681;SDS011;21805;51.022;4.782;2023-08-06T15:25:45;12.43;;;2.38;;
35681;SDS011;21805;51.022;4.782;2023-08-06T15:28:20;9.82;;;2.15;;
35681;SDS011;21805;51.022;4.782;2023-08-06T15:30:55;12.85;;;2.08;;
35681;SDS011;21805;51.022;4.782;2023-08-06T15:33:22;13.88;;;2.45;;
35681;SDS011;21805;51.022;4.782;2023-08-06T15:35:53;12.73;;;2.70;;
35681;SDS011;21805;51.022;4.782;2023-08-06T15:38:19;15.75;;;2.45;;
35681;SDS011;21805;51.022;4.782;2023-08-06T15:40:45;12.10;;;2.30;;
35681;SDS011;21805;51.022;4.782;2023-08-06T15:43:11;17.08;;;2.55;;
35681;SDS011;21805;51.022;4.782;2023-08-06T15:45:38;25.13;;;3.03;;
35681;SDS011;21805;51.022;4.782;2023-08-06T15:48:04;19.88;;;3.10;;
35681;SDS011;21805;51.022;4.782;2023-08-06T15:50:38;15.30;;;2.75;;
35681;SDS011;21805;51.022;4.782;2023-08-06T15:53:06;9.32;;;2.45;;
35681;SDS011;21805;51.022;4.782;2023-08-06T15:55:40;13.35;;;2.22;;
35681;SDS011;21805;51.022;4.782;2023-08-06T15:58:11;15.85;;;2.63;;
35681;SDS011;21805;51.022;4.782;2023-08-06T16:00:37;12.65;;;2.40;;
35681;SDS011;21805;51.022;4.782;2023-08-06T16:05:34;15.75;;;2.40;;
35681;SDS011;21805;51.022;4.782;2023-08-06T16:08:01;13.98;;;2.45;;
35681;SDS011;21805;51.022;4.782;2023-08-06T16:10:30;10.77;;;2.63;;
35681;SDS011;21805;51.022;4.782;2023-08-06T16:15:30;16.25;;;2.90;;
35681;SDS011;21805;51.022;4.782;2023-08-06T16:20:45;17.40;;;2.90;;
35681;SDS011;21805;51.022;4.782;2023-08-06T16:23:14;12.07;;;2.78;;
35681;SDS011;21805;51.022;4.782;2023-08-06T16:25:57;12.85;;;3.20;;
35681;SDS011;21805;51.022;4.782;2023-08-06T16:31:05;19.25;;;3.17;;
35681;SDS011;21805;51.022;4.782;2023-08-06T16:33:36;16.63;;;2.80;;
35681;SDS011;21805;51.022;4.782;2023-08-06T16:36:05;15.95;;;2.75;;
35681;SDS011;21805;51.022;4.782;2023-08-06T16:38:34;17.77;;;3.00;;
35681;SDS011;21805;51.022;4.782;2023-08-06T16:41:09;13.55;;;2.90;;
35681;SDS011;21805;51.022;4.782;2023-08-06T16:43:38;10.32;;;2.88;;
35681;SDS011;21805;51.022;4.782;2023-08-06T16:46:06;22.83;;;3.58;;
35681;SDS011;21805;51.022;4.782;2023-08-06T16:48:32;14.85;;;3.00;;
35681;SDS011;21805;51.022;4.782;2023-08-06T16:54:01;13.25;;;2.72;;
35681;SDS011;21805;51.022;4.782;2023-08-06T16:59:15;15.88;;;3.63;;
35681;SDS011;21805;51.022;4.782;2023-08-06T17:04:40;23.80;;;4.85;;
35681;SDS011;21805;51.022;4.782;2023-08-06T17:07:23;22.85;;;4.13;;
35681;SDS011;21805;51.022;4.782;2023-08-06T17:12:24;16.70;;;3.47;;
35681;SDS011;21805;51.022;4.782;2023-08-06T17:14:54;15.15;;;3.78;;
35681;SDS011;21805;51.022;4.782;2023-08-06T17:17:25;18.15;;;3.35;;
35681;SDS011;21805;51.022;4.782;2023-08-06T17:19:55;13.45;;;2.95;;
35681;SDS011;21805;51.022;4.782;2023-08-06T17:22:38;16.77;;;3.60;;
35681;SDS011;21805;51.022;4.782;2023-08-06T17:25:11;14.75;;;3.20;;
35681;SDS011;21805;51.022;4.782;2023-08-06T17:27:40;16.85;;;3.38;;
35681;SDS011;21805;51.022;4.782;2023-08-06T17:33:13;12.82;;;2.97;;
35681;SDS011;21805;51.022;4.782;2023-08-06T17:36:05;22.38;;;3.08;;
35681;SDS011;21805;51.022;4.782;2023-08-06T17:41:27;22.42;;;3.60;;
35681;SDS011;21805;51.022;4.782;2023-08-06T17:46:42;14.77;;;2.80;;
35681;SDS011;21805;51.022;4.782;2023-08-06T17:49:12;16.90;;;3.50;;
35681;SDS011;21805;51.022;4.782;2023-08-06T17:51:39;28.80;;;3.95;;
35681;SDS011;21805;51.022;4.782;2023-08-06T17:56:35;18.98;;;3.35;;
35681;SDS011;21805;51.022;4.782;2023-08-06T17:59:01;11.90;;;3.10;;
35681;SDS011;21805;51.022;4.782;2023-08-06T18:01:33;23.65;;;3.45;;
35681;SDS011;21805;51.022;4.782;2023-08-06T18:04:01;14.65;;;3.45;;
35681;SDS011;21805;51.022;4.782;2023-08-06T18:06:27;19.95;;;3.50;;
35681;SDS011;21805;51.022;4.782;2023-08-06T18:11:22;36.67;;;4.10;;
35681;SDS011;21805;51.022;4.782;2023-08-06T18:13:48;19.67;;;4.20;;
35681;SDS011;21805;51.022;4.782;2023-08-06T18:16:14;23.02;;;3.75;;
35681;SDS011;21805;51.022;4.782;2023-08-06T18:18:40;21.23;;;4.20;;
35681;SDS011;21805;51.022;4.782;2023-08-06T18:23:37;28.70;;;4.80;;
35681;SDS011;21805;51.022;4.782;2023-08-06T18:26:05;13.48;;;3.38;;
35681;SDS011;21805;51.022;4.782;2023-08-06T18:28:31;14.02;;;3.75;;
35681;SDS011;21805;51.022;4.782;2023-08-06T18:31:01;19.08;;;4.10;;
35681;SDS011;21805;51.022;4.782;2023-08-06T18:33:31;18.38;;;3.50;;
35681;SDS011;21805;51.022;4.782;2023-08-06T18:35:57;22.48;;;3.60;;
35681;SDS011;21805;51.022;4.782;2023-08-06T18:38:24;12.80;;;3.25;;
35681;SDS011;21805;51.022;4.782;2023-08-06T18:41:01;18.58;;;3.40;;
35681;SDS011;21805;51.022;4.782;2023-08-06T18:43:30;17.25;;;3.55;;
35681;SDS011;21805;51.022;4.782;2023-08-06T18:48:25;16.52;;;3.13;;
35681;SDS011;21805;51.022;4.782;2023-08-06T18:50:50;18.30;;;3.17;;
35681;SDS011;21805;51.022;4.782;2023-08-06T18:53:23;20.73;;;3.95;;
35681;SDS011;21805;51.022;4.782;2023-08-06T18:58:21;15.73;;;3.38;;
35681;SDS011;21805;51.022;4.782;2023-08-06T19:00:50;13.45;;;3.50;;
35681;SDS011;21805;51.022;4.782;2023-08-06T19:05:47;15.07;;;3.55;;
35681;SDS011;21805;51.022;4.782;2023-08-06T19:08:13;21.80;;;3.20;;
35681;SDS011;21805;51.022;4.782;2023-08-06T19:10:42;23.45;;;3.60;;
35681;SDS011;21805;51.022;4.782;2023-08-06T19:13:12;18.95;;;3.88;;
35681;SDS011;21805;51.022;4.782;2023-08-06T19:15:46;22.00;;;3.28;;
35681;SDS011;21805;51.022;4.782;2023-08-06T19:18:17;11.75;;;3.53;;
35681;SDS011;21805;51.022;4.782;2023-08-06T19:20:57;15.55;;;3.10;;
35681;SDS011;21805;51.022;4.782;2023-08-06T19:23:29;19.58;;;3.70;;
35681;SDS011;21805;51.022;4.782;2023-08-06T19:25:59;20.75;;;3.20;;
35681;SDS011;21805;51.022;4.782;2023-08-06T19:28:30;15.77;;;3.17;;
35681;SDS011;21805;51.022;4.782;2023-08-06T19:30:57;19.83;;;3.25;;
35681;SDS011;21805;51.022;4.782;2023-08-06T19:33:31;21.08;;;4.03;;
35681;SDS011;21805;51.022;4.782;2023-08-06T19:35:59;21.35;;;3.28;;
35681;SDS011;21805;51.022;4.782;2023-08-06T19:38:35;27.98;;;3.83;;
35681;SDS011;21805;51.022;4.782;2023-08-06T19:41:04;25.52;;;3.28;;
35681;SDS011;21805;51.022;4.782;2023-08-06T19:43:32;19.38;;;3.50;;
35681;SDS011;21805;51.022;4.782;2023-08-06T19:46:01;26.52;;;3.15;;
35681;SDS011;21805;51.022;4.782;2023-08-06T19:48:29;15.23;;;3.13;;
35681;SDS011;21805;51.022;4.782;2023-08-06T19:53:29;15.98;;;3.80;;
35681;SDS011;21805;51.022;4.782;2023-08-06T19:55:59;25.42;;;3.85;;
35681;SDS011;21805;51.022;4.782;2023-08-06T19:58:29;19.65;;;3.97;;
35681;SDS011;21805;51.022;4.782;2023-08-06T20:00:59;25.63;;;3.17;;
35681;SDS011;21805;51.022;4.782;2023-08-06T20:05:58;25.63;;;3.88;;
35681;SDS011;21805;51.022;4.782;2023-08-06T20:08:27;24.23;;;3.90;;
35681;SDS011;21805;51.022;4.782;2023-08-06T20:15:55;17.88;;;3.70;;
35681;SDS011;21805;51.022;4.782;2023-08-06T20:20:53;23.77;;;3.60;;
35681;SDS011;21805;51.022;4.782;2023-08-06T20:25:49;23.75;;;3.40;;
35681;SDS011;21805;51.022;4.782;2023-08-06T20:28:17;21.08;;;3.10;;
35681;SDS011;21805;51.022;4.782;2023-08-06T20:30:43;26.05;;;3.75;;
35681;SDS011;21805;51.022;4.782;2023-08-06T20:33:10;14.60;;;3.17;;
35681;SDS011;21805;51.022;4.782;2023-08-06T20:35:42;17.48;;;3.80;;
35681;SDS011;21805;51.022;4.782;2023-08-06T20:43:09;22.60;;;3.70;;
35681;SDS011;21805;51.022;4.782;2023-08-06T20:45:39;24.08;;;3.78;;
35681;SDS011;21805;51.022;4.782;2023-08-06T20:50:39;18.35;;;3.53;;
35681;SDS011;21805;51.022;4.782;2023-08-06T20:53:07;18.77;;;3.88;;
35681;SDS011;21805;51.022;4.782;2023-08-06T20:55:33;20.55;;;3.95;;
35681;SDS011;21805;51.022;4.782;2023-08-06T20:58:03;23.50;;;3.63;;
35681;SDS011;21805;51.022;4.782;2023-08-06T21:00:32;20.52;;;3.78;;
35681;SDS011;21805;51.022;4.782;2023-08-06T21:02:58;21.02;;;3.70;;
35681;SDS011;21805;51.022;4.782;2023-08-06T21:05:24;19.88;;;3.80;;
35681;SDS011;21805;51.022;4.782;2023-08-06T21:07:55;18.42;;;3.53;;
